Terminal Aerodrome Forecast
Issued by NWS

Home | Current Version | Previous Version | Text Only | Print | Product List | Glossary On
Versions: 1 2 3 4 5 6 7 8 9 10 11 12 13
901
FTUS43 KAPX 300530
TAFMBL
TAF
KMBL 300530Z 3006/3106 10003KT P6SM SCT050 BKN150
     FM301400 07006KT P6SM BKN150
     FM301900 02009KT P6SM SCT060 BKN150
     FM310100 09004KT P6SM BKN060 BKN120=

USA.gov is the U.S. government's official web portal to all federal, state and local government web resources and services.